Time;durP1;ratioP1;P1;durP2;ratioP2;P2;SDS_P1;SDS_P2;PMS_P1;PMS_P2;Temp;Humidity;BMP_temperature;BMP_pressure;BME280_temperature;BME280_humidity;BME280_pressure;Samples;Min_cycle;Max_cycle;Signal;HPM_P1;HPM_P2
2022/09/25 04:02:16;;;;;;;23.17;21.17;;;14.10;99.90;;;;;;5129730;23;20463;-58
2022/09/25 04:04:44;;;;;;;21.37;19.37;;;14.10;99.90;;;;;;4974794;28;20482;-60
2022/09/25 04:07:11;;;;;;;23.27;21.17;;;14.20;99.90;;;;;;4975773;28;20902;-59
2022/09/25 04:09:38;;;;;;;23.47;21.20;;;14.20;99.90;;;;;;4974584;28;20966;-59
2022/09/25 04:12:06;;;;;;;25.03;22.17;;;14.30;99.90;;;;;;4974793;28;20470;-59
2022/09/25 04:14:32;;;;;;;23.23;21.10;;;14.20;99.90;;;;;;4974840;28;20454;-59
2022/09/25 04:16:59;;;;;;;21.40;19.40;;;14.20;99.90;;;;;;4974886;28;20458;-60
2022/09/25 04:19:27;;;;;;;23.13;21.03;;;14.30;99.90;;;;;;4974796;28;20458;-59
2022/09/25 04:21:54;;;;;;;23.83;21.63;;;14.30;99.90;;;;;;4974635;28;20478;-59
2022/09/25 04:27:04;;;;;;;23.90;21.53;;;14.20;99.90;;;;;;4974868;28;20813;-59
2022/09/25 04:29:32;;;;;;;22.07;20.17;;;14.20;99.90;;;;;;4974779;28;20459;-60
2022/09/25 04:34:44;;;;;;;21.70;19.63;;;14.20;99.90;;;;;;4974546;28;20466;-59
2022/09/25 04:37:11;;;;;;;22.37;20.30;;;14.20;99.90;;;;;;4974617;28;20458;-59
2022/09/25 04:39:38;;;;;;;23.03;21.00;;;14.20;99.90;;;;;;4974634;28;20454;-59
2022/09/25 04:42:06;;;;;;;22.63;20.73;;;14.20;99.90;;;;;;4974580;28;20475;-59
2022/09/25 04:44:32;;;;;;;24.37;22.13;;;14.20;99.90;;;;;;4974792;28;20469;-59
2022/09/25 04:46:59;;;;;;;22.70;20.70;;;14.20;99.90;;;;;;4975246;28;20454;-60
2022/09/25 04:49:26;;;;;;;22.30;20.20;;;14.20;99.90;;;;;;4975939;28;20875;-60
2022/09/25 04:51:55;;;;;;;21.33;19.43;;;14.20;99.90;;;;;;4978035;28;20482;-60
2022/09/25 04:54:22;;;;;;;24.27;21.97;;;14.20;99.90;;;;;;4978229;28;20450;-60
2022/09/25 04:56:49;;;;;;;21.97;19.87;;;14.30;99.90;;;;;;4978200;28;20509;-59
2022/09/25 04:59:16;;;;;;;20.40;18.60;;;14.30;99.90;;;;;;4978189;28;20458;-60
2022/09/25 05:01:42;;;;;;;20.77;18.77;;;14.30;99.90;;;;;;4977795;28;20921;-59
2022/09/25 05:04:09;;;;;;;21.40;19.43;;;14.30;99.90;;;;;;4977734;28;20482;-59
2022/09/25 05:06:36;;;;;;;20.77;18.90;;;14.30;99.90;;;;;;4978068;28;20459;-59
2022/09/25 05:09:04;;;;;;;22.97;20.97;;;14.30;99.90;;;;;;4977956;28;20458;-59
2022/09/25 05:11:30;;;;;;;23.87;21.40;;;14.30;99.90;;;;;;4977950;28;20474;-59
2022/09/25 05:13:57;;;;;;;23.67;21.57;;;14.20;99.90;;;;;;4977816;28;20459;-59
2022/09/25 05:16:24;;;;;;;23.73;21.50;;;14.20;99.90;;;;;;4977843;28;20510;-60
2022/09/25 05:18:50;;;;;;;25.17;22.63;;;14.20;99.90;;;;;;4977813;28;20462;-59
2022/09/25 05:21:17;;;;;;;24.60;22.40;;;14.20;99.90;;;;;;4977772;28;20474;-59
2022/09/25 05:23:44;;;;;;;25.40;23.10;;;14.20;99.90;;;;;;4978162;28;20529;-59
2022/09/25 05:26:12;;;;;;;23.53;21.33;;;14.20;99.90;;;;;;4977670;28;20454;-59
2022/09/25 05:28:38;;;;;;;22.90;20.90;;;14.20;99.90;;;;;;4977542;28;20965;-59
2022/09/25 05:31:06;;;;;;;24.53;22.33;;;14.20;99.90;;;;;;4977565;28;20530;-60
2022/09/25 05:33:34;;;;;;;22.37;20.30;;;14.20;99.90;;;;;;4977665;28;20513;-60
2022/09/25 05:36:01;;;;;;;23.33;21.23;;;14.20;99.90;;;;;;4977539;28;20455;-60
2022/09/25 05:38:29;;;;;;;24.07;21.77;;;14.20;99.90;;;;;;4977500;28;20541;-59
2022/09/25 05:40:55;;;;;;;24.20;21.90;;;14.10;99.90;;;;;;4977360;28;20475;-60
2022/09/25 05:43:24;;;;;;;22.67;20.53;;;14.10;99.90;;;;;;4977025;28;21048;-59
2022/09/25 05:45:54;;;;;;;23.33;21.23;;;14.10;99.90;;;;;;4977288;28;20459;-59
2022/09/25 05:48:21;;;;;;;24.53;22.33;;;14.20;99.90;;;;;;4978292;28;20458;-59
2022/09/25 05:50:51;;;;;;;29.40;24.83;;;14.20;99.90;;;;;;4977047;28;20549;-59
2022/09/25 05:53:18;;;;;;;25.37;23.13;;;14.20;99.90;;;;;;4977160;28;20438;-59
2022/09/25 05:55:49;;;;;;;26.83;24.30;;;14.10;99.90;;;;;;4977157;28;20458;-59
2022/09/25 05:58:16;;;;;;;33.13;27.93;;;14.00;99.90;;;;;;4977035;28;20443;-59
2022/09/25 06:00:44;;;;;;;31.33;28.10;;;14.00;99.90;;;;;;4976574;28;20490;-59
2022/09/25 06:03:11;;;;;;;31.13;27.33;;;14.00;99.90;;;;;;4976888;28;20443;-59
2022/09/25 06:05:39;;;;;;;30.60;27.60;;;13.90;99.90;;;;;;4976885;28;20454;-59
2022/09/25 06:08:06;;;;;;;29.87;26.80;;;14.00;99.90;;;;;;4976743;28;20454;-59
2022/09/25 06:10:32;;;;;;;31.87;28.57;;;14.00;99.90;;;;;;4977216;28;20478;-59
2022/09/25 06:13:00;;;;;;;32.03;28.63;;;14.00;99.90;;;;;;4976756;28;20459;-59
2022/09/25 06:15:27;;;;;;;32.50;29.00;;;14.10;99.90;;;;;;4976781;28;20502;-59
2022/09/25 06:17:55;;;;;;;31.87;28.47;;;14.10;99.90;;;;;;4976736;28;20513;-59
2022/09/25 06:20:22;;;;;;;30.37;27.30;;;14.10;99.90;;;;;;4976617;28;20872;-59
2022/09/25 06:22:53;;;;;;;28.53;25.63;;;14.10;99.90;;;;;;4976380;28;21004;-60
2022/09/25 06:25:20;;;;;;;30.80;26.47;;;14.20;99.90;;;;;;4977003;28;20502;-60
2022/09/25 06:27:46;;;;;;;27.40;24.30;;;14.20;99.90;;;;;;4976573;28;20505;-59
2022/09/25 06:30:13;;;;;;;25.80;23.00;;;14.20;99.90;;;;;;4976443;28;20488;-59
2022/09/25 06:32:40;;;;;;;27.43;24.77;;;14.20;99.90;;;;;;4976933;28;20467;-59
2022/09/25 06:35:09;;;;;;;27.23;24.30;;;14.20;99.90;;;;;;4976835;28;20509;-59
2022/09/25 06:37:35;;;;;;;23.80;21.40;;;14.20;99.90;;;;;;4976484;28;20458;-59
2022/09/25 06:40:02;;;;;;;23.40;21.10;;;14.20;99.90;;;;;;4976527;28;20462;-59
2022/09/25 06:42:29;;;;;;;23.07;20.70;;;14.20;99.90;;;;;;4977327;28;20974;-60
2022/09/25 06:44:55;;;;;;;22.40;20.20;;;14.20;99.90;;;;;;4976232;28;20471;-60
2022/09/25 06:47:22;;;;;;;21.80;19.70;;;14.30;99.90;;;;;;4976670;28;20461;-60
2022/09/25 06:49:49;;;;;;;22.73;20.33;;;14.30;99.90;;;;;;4976424;28;20455;-60
2022/09/25 06:52:17;;;;;;;22.23;19.73;;;14.30;99.90;;;;;;4976677;28;20479;-59
2022/09/25 06:54:43;;;;;;;22.13;19.93;;;14.30;99.90;;;;;;4976300;28;20455;-59
2022/09/25 06:57:11;;;;;;;22.43;20.13;;;14.30;99.90;;;;;;4976413;28;20980;-59
2022/09/25 06:59:38;;;;;;;21.83;19.27;;;14.30;99.90;;;;;;4976737;28;20509;-59
2022/09/25 07:03:43;;;;;;;22.40;20.20;;;14.40;99.90;;;;;;4975517;28;20491;-60
2022/09/25 07:04:50;;;;;;;21.33;19.40;;;14.40;99.90;;;;;;4975455;28;20485;-59
2022/09/25 07:07:19;;;;;;;20.73;18.67;;;14.40;99.90;;;;;;4975822;28;20454;-59
2022/09/25 07:09:47;;;;;;;22.20;20.00;;;14.50;99.90;;;;;;4975826;28;20199;-60
2022/09/25 07:12:14;;;;;;;22.13;19.90;;;14.50;99.90;;;;;;4975135;28;20515;-60
2022/09/25 07:14:42;;;;;;;22.07;19.93;;;14.60;99.90;;;;;;4976104;28;21070;-60
2022/09/25 07:17:09;;;;;;;23.27;20.97;;;14.50;99.90;;;;;;4977420;28;20457;-59
2022/09/25 07:19:35;;;;;;;21.97;19.77;;;14.60;99.90;;;;;;4977716;28;20459;-59
2022/09/25 07:22:03;;;;;;;22.17;20.00;;;14.60;99.90;;;;;;4977775;28;20482;-59
2022/09/25 07:24:32;;;;;;;22.10;19.90;;;14.50;99.90;;;;;;4977096;28;20491;-59
2022/09/25 07:26:59;;;;;;;22.97;20.50;;;14.60;99.90;;;;;;4976652;28;20546;-60
2022/09/25 07:29:25;;;;;;;24.17;21.77;;;14.60;99.90;;;;;;4976905;28;20459;-60
2022/09/25 07:31:52;;;;;;;23.87;21.37;;;14.70;99.90;;;;;;4976721;28;20478;-59
2022/09/25 07:34:19;;;;;;;23.33;21.03;;;14.80;99.90;;;;;;4976376;28;20455;-60
2022/09/25 07:36:46;;;;;;;24.90;22.50;;;14.80;99.90;;;;;;4975783;28;20462;-60
2022/09/25 07:39:13;;;;;;;24.40;22.03;;;14.80;99.90;;;;;;4976045;28;20461;-60
2022/09/25 07:41:41;;;;;;;22.07;19.80;;;14.90;99.90;;;;;;4975219;28;20475;-60
2022/09/25 07:44:08;;;;;;;20.37;18.40;;;14.90;99.90;;;;;;4975591;28;20506;-60
2022/09/25 07:46:34;;;;;;;21.33;19.23;;;15.00;99.90;;;;;;4974845;28;20853;-60
2022/09/25 07:49:01;;;;;;;18.83;17.10;;;15.10;99.90;;;;;;4975028;28;20513;-60
2022/09/25 07:51:28;;;;;;;19.23;17.50;;;15.20;99.90;;;;;;4975008;28;20479;-60
2022/09/25 07:53:54;;;;;;;17.93;16.37;;;15.20;99.90;;;;;;4975015;28;20525;-60
2022/09/25 07:56:21;;;;;;;18.07;16.40;;;15.20;99.90;;;;;;4974962;28;20808;-60
2022/09/25 07:58:53;;;;;;;15.23;13.90;;;15.30;99.90;;;;;;4974927;28;20513;-60
2022/09/25 08:01:20;;;;;;;13.90;12.70;;;15.40;99.90;;;;;;4974540;28;20989;-60
2022/09/25 08:03:47;;;;;;;14.67;13.37;;;15.50;99.90;;;;;;4974767;28;20509;-60
2022/09/25 08:06:13;;;;;;;13.97;12.67;;;15.60;99.90;;;;;;4974837;28;20450;-60
2022/09/25 08:08:42;;;;;;;13.87;12.80;;;15.80;99.90;;;;;;4975300;28;20823;-59
2022/09/25 08:11:11;;;;;;;15.40;14.03;;;15.80;99.90;;;;;;4974629;28;20985;-60
2022/09/25 08:13:38;;;;;;;14.43;13.23;;;15.90;99.90;;;;;;4974596;28;20945;-60
2022/09/25 08:16:10;;;;;;;12.60;11.40;;;15.90;99.90;;;;;;4974748;28;20450;-60
2022/09/25 08:18:37;;;;;;;12.23;11.23;;;15.90;99.90;;;;;;4974774;28;20445;-60
2022/09/25 08:21:05;;;;;;;13.60;12.50;;;15.90;99.90;;;;;;4974598;28;20622;-61
2022/09/25 08:23:32;;;;;;;13.27;12.10;;;16.00;99.90;;;;;;4974662;28;20459;-60
2022/09/25 08:25:59;;;;;;;11.83;10.93;;;16.00;99.90;;;;;;4978272;28;20482;-60
2022/09/25 08:28:26;;;;;;;11.47;10.40;;;16.00;99.90;;;;;;4978757;28;20450;-59
2022/09/25 08:30:53;;;;;;;11.70;10.80;;;16.10;99.90;;;;;;4978587;28;20478;-58
2022/09/25 08:33:21;;;;;;;12.27;10.90;;;16.20;99.90;;;;;;4978251;28;20800;-59
2022/09/25 08:35:55;;;;;;;11.33;10.37;;;16.30;99.90;;;;;;4978557;28;20459;-59
2022/09/25 08:38:22;;;;;;;12.27;11.17;;;16.30;99.90;;;;;;4978528;28;20448;-61
2022/09/25 08:40:55;;;;;;;11.97;11.07;;;16.40;99.90;;;;;;4978383;28;20470;-58
2022/09/25 08:43:23;;;;;;;12.70;11.53;;;16.50;99.90;;;;;;4978487;28;20470;-59
2022/09/25 08:51:27;;;;;;;13.50;12.30;;;16.80;99.90;;;;;;4978208;28;20466;-58
2022/09/25 08:53:54;;;;;;;15.33;11.13;;;16.80;99.90;;;;;;4978314;28;20497;-59
2022/09/25 08:56:23;;;;;;;13.27;11.53;;;16.90;99.90;;;;;;4978232;28;20458;-58
2022/09/25 08:58:53;;;;;;;11.47;10.30;;;16.90;99.90;;;;;;4978223;28;20561;-58
2022/09/25 09:01:24;;;;;;;13.63;12.23;;;16.90;99.90;;;;;;4978129;28;20482;-58
2022/09/25 09:03:57;;;;;;;13.40;12.20;;;16.90;99.90;;;;;;4978081;28;20442;-59
2022/09/25 09:06:27;;;;;;;12.73;11.67;;;16.80;99.90;;;;;;4978184;28;20435;-59
2022/09/25 09:09:06;;;;;;;14.27;12.87;;;16.80;99.90;;;;;;4977995;28;20591;-59
2022/09/25 09:11:37;;;;;;;14.20;12.90;;;16.70;99.90;;;;;;4977865;28;20470;-59
2022/09/25 09:14:06;;;;;;;13.87;12.67;;;16.50;99.90;;;;;;4977593;28;20523;-59
2022/09/25 09:16:41;;;;;;;16.37;12.53;;;16.50;99.90;;;;;;4977747;28;20461;-59
2022/09/25 09:19:11;;;;;;;14.73;13.43;;;16.60;99.90;;;;;;4977456;28;20435;-59
2022/09/25 09:21:41;;;;;;;13.23;12.13;;;16.60;99.90;;;;;;4977722;28;20527;-59
2022/09/25 09:24:15;;;;;;;14.37;13.03;;;16.60;99.90;;;;;;4978857;28;20443;-59
2022/09/25 09:27:03;;;;;;;14.17;12.97;;;16.60;99.90;;;;;;4977697;28;20443;-59
2022/09/25 09:29:44;;;;;;;15.00;13.60;;;16.60;99.90;;;;;;4977770;28;20447;-59
2022/09/25 09:32:25;;;;;;;15.07;13.67;;;16.60;99.90;;;;;;4977768;28;20475;-60
2022/09/25 09:35:06;;;;;;;15.13;13.73;;;16.50;99.90;;;;;;4977878;28;20859;-61
2022/09/25 09:37:43;;;;;;;16.90;15.27;;;16.50;99.90;;;;;;4977821;28;20442;-59
2022/09/25 09:40:22;;;;;;;16.23;14.53;;;16.40;99.90;;;;;;4977335;28;20443;-60
2022/09/25 09:42:58;;;;;;;16.33;14.80;;;16.40;99.90;;;;;;4977528;28;20442;-59
2022/09/25 09:45:32;;;;;;;16.63;15.03;;;16.30;99.90;;;;;;4976937;28;20827;-60
2022/09/25 09:48:05;;;;;;;17.53;15.87;;;16.20;99.90;;;;;;4977077;28;20808;-60
2022/09/25 09:50:41;;;;;;;18.47;16.77;;;16.20;99.90;;;;;;4977329;28;20463;-59
2022/09/25 09:53:17;;;;;;;18.47;16.83;;;16.10;99.90;;;;;;4977171;28;20494;-60
2022/09/25 09:55:48;;;;;;;19.53;17.70;;;16.00;99.90;;;;;;4976766;28;20443;-59
2022/09/25 09:58:20;;;;;;;19.10;17.10;;;16.00;99.90;;;;;;4977617;28;20447;-61
2022/09/25 10:00:48;;;;;;;17.43;15.73;;;16.00;99.90;;;;;;4976764;28;20494;-60
2022/09/25 10:03:20;;;;;;;18.73;16.97;;;16.00;99.90;;;;;;4977448;28;20478;-60
2022/09/25 10:05:50;;;;;;;19.07;17.23;;;16.10;99.90;;;;;;4976597;28;20980;-61
2022/09/25 10:08:17;;;;;;;17.20;15.60;;;16.10;99.90;;;;;;4976895;28;20462;-60
2022/09/25 10:10:46;;;;;;;18.97;17.33;;;16.30;99.90;;;;;;4976849;28;20478;-60
2022/09/25 10:13:17;;;;;;;18.53;16.73;;;16.30;99.90;;;;;;4977499;28;20542;-59
2022/09/25 10:15:47;;;;;;;19.40;17.37;;;16.30;99.90;;;;;;4977198;28;20463;-64
2022/09/25 10:18:16;;;;;;;19.20;17.37;;;16.40;99.90;;;;;;4976642;28;20882;-60
2022/09/25 10:20:46;;;;;;;18.53;16.83;;;16.40;99.90;;;;;;4976570;28;20485;-60
2022/09/25 10:23:30;;;;;;;19.47;15.43;;;16.40;99.90;;;;;;4976683;28;20443;-60
2022/09/25 10:25:56;;;;;;;17.67;16.07;;;16.40;99.90;;;;;;4976279;28;20462;-60
2022/09/25 10:28:28;;;;;;;20.30;17.17;;;16.50;99.90;;;;;;4976838;28;20465;-60
2022/09/25 10:30:56;;;;;;;18.83;17.03;;;16.60;99.90;;;;;;4977149;28;20474;-60
2022/09/25 10:33:24;;;;;;;17.60;15.43;;;16.70;99.90;;;;;;4976534;28;20455;-60
2022/09/25 10:35:53;;;;;;;17.10;15.50;;;16.90;99.90;;;;;;4976516;28;20450;-60
2022/09/25 10:38:32;;;;;;;18.00;15.10;;;17.10;99.90;;;;;;4976766;28;20455;-60
2022/09/25 10:41:05;;;;;;;17.97;16.17;;;17.20;99.90;;;;;;4976258;28;20845;-60
2022/09/25 10:43:32;;;;;;;18.63;16.30;;;17.20;99.90;;;;;;4976103;28;20851;-60
2022/09/25 10:46:12;;;;;;;16.67;15.10;;;17.30;99.90;;;;;;4976769;28;20482;-60
2022/09/25 10:51:25;;;;;;;18.27;16.33;;;17.00;99.90;;;;;;4976028;28;20465;-59
2022/09/25 10:54:10;;;;;;;17.70;16.00;;;16.90;99.90;;;;;;4975575;28;20463;-59
2022/09/25 10:56:38;;;;;;;19.13;17.43;;;16.90;99.90;;;;;;4975889;28;20466;-59
2022/09/25 10:59:16;;;;;;;18.43;16.63;;;16.80;99.90;;;;;;4975590;28;20521;-59
2022/09/25 11:01:44;;;;;;;18.33;16.63;;;16.70;99.90;;;;;;4975442;28;20487;-59
2022/09/25 11:04:16;;;;;;;19.50;17.60;;;16.60;99.90;;;;;;4975746;28;20462;-59
2022/09/25 11:06:46;;;;;;;19.53;17.63;;;16.60;99.90;;;;;;4975756;28;20561;-59
2022/09/25 11:09:16;;;;;;;19.50;17.60;;;16.60;99.90;;;;;;4975891;28;20992;-59
2022/09/25 11:11:45;;;;;;;17.60;15.90;;;16.70;99.90;;;;;;4975731;28;20474;-59
2022/09/25 11:14:23;;;;;;;18.13;16.43;;;16.70;99.90;;;;;;4975531;28;20490;-59
2022/09/25 11:16:52;;;;;;;18.17;16.57;;;16.80;99.90;;;;;;4975606;28;20439;-59
2022/09/25 11:19:25;;;;;;;20.17;18.20;;;16.90;99.90;;;;;;4975553;28;20466;-59
2022/09/25 11:22:03;;;;;;;18.87;17.13;;;17.00;99.90;;;;;;4975485;28;20533;-59
2022/09/25 11:24:41;;;;;;;18.60;16.70;;;17.10;99.90;;;;;;4975522;28;20471;-59
2022/09/25 11:27:14;;;;;;;19.20;17.20;;;17.30;99.90;;;;;;4975408;28;20431;-59
2022/09/25 11:29:49;;;;;;;17.87;16.07;;;17.40;99.90;;;;;;4975454;28;20490;-59
2022/09/25 11:32:24;;;;;;;18.07;16.27;;;17.60;99.90;;;;;;4975497;28;20474;-59
2022/09/25 11:35:18;;;;;;;17.70;16.00;;;17.90;99.90;;;;;;4975765;28;20445;-59
2022/09/25 11:37:54;;;;;;;17.90;16.30;;;18.00;99.90;;;;;;4975307;28;20442;-61
2022/09/25 11:43:25;;;;;;;17.83;16.03;;;18.10;99.90;;;;;;4975123;28;20559;-58
2022/09/25 11:45:58;;;;;;;19.33;15.50;;;18.30;99.90;;;;;;4975620;28;20498;-58
2022/09/25 11:48:33;;;;;;;21.20;16.43;;;18.20;99.90;;;;;;4976034;28;20438;-58
2022/09/25 11:51:10;;;;;;;19.70;17.77;;;18.20;99.90;;;;;;4976021;28;20908;-58
2022/09/25 11:53:45;;;;;;;19.77;17.97;;;18.30;99.90;;;;;;4975875;28;20442;-61
2022/09/25 11:56:28;;;;;;;17.37;15.77;;;18.30;99.90;;;;;;4975430;28;20434;-58
2022/09/25 11:59:15;;;;;;;17.87;16.03;;;18.40;99.90;;;;;;4974997;28;20451;-60
2022/09/25 12:01:48;;;;;;;17.90;16.20;;;18.60;99.90;;;;;;4974720;28;20482;-59
2022/09/25 12:04:37;;;;;;;16.60;15.20;;;18.70;99.90;;;;;;4974666;28;20519;-59
2022/09/25 12:07:30;;;;;;;17.43;15.93;;;18.80;99.90;;;;;;4974498;28;20988;-58
2022/09/25 12:10:18;;;;;;;16.33;14.70;;;19.00;99.90;;;;;;4974524;28;20443;-59
2022/09/25 12:12:58;;;;;;;15.80;14.30;;;19.10;99.90;;;;;;4974589;28;20454;-58
2022/09/25 12:15:35;;;;;;;15.00;13.80;;;18.90;99.90;;;;;;4974672;28;20445;-59
2022/09/25 12:18:11;;;;;;;17.47;14.10;;;18.80;99.90;;;;;;4974520;28;20438;-58
2022/09/25 12:20:43;;;;;;;15.23;13.80;;;18.80;99.90;;;;;;4975175;28;20533;-60
2022/09/25 12:23:21;;;;;;;16.30;14.70;;;18.80;99.90;;;;;;4974487;28;20447;-59
2022/09/25 12:26:00;;;;;;;15.57;14.17;;;18.70;99.90;;;;;;4974371;28;20947;-59
2022/09/25 12:28:37;;;;;;;16.10;14.50;;;18.70;99.90;;;;;;4974405;28;20470;-59
2022/09/25 12:31:14;;;;;;;11.97;10.87;;;18.60;99.90;;;;;;4974551;28;20482;-59
2022/09/25 12:33:51;;;;;;;10.57;9.70;;;18.60;99.90;;;;;;4974402;28;20474;-60
2022/09/25 12:36:23;;;;;;;9.13;8.43;;;18.70;99.90;;;;;;4974455;28;20928;-60
2022/09/25 12:38:54;;;;;;;9.23;8.43;;;18.60;99.90;;;;;;4974238;28;20438;-60
2022/09/25 12:41:28;;;;;;;8.83;8.23;;;18.60;99.90;;;;;;4974357;28;20529;-60
2022/09/25 12:44:03;;;;;;;8.00;7.30;;;18.70;99.90;;;;;;4974676;28;20515;-59
2022/09/25 12:46:33;;;;;;;7.77;7.07;;;19.00;99.90;;;;;;4974167;28;20513;-59
2022/09/25 12:49:12;;;;;;;7.70;6.50;;;19.30;99.90;;;;;;4975158;28;20520;-59
2022/09/25 12:51:42;;;;;;;5.83;5.43;;;19.50;99.90;;;;;;4974285;28;20530;-59
2022/09/25 12:54:21;;;;;;;5.90;5.50;;;19.70;99.90;;;;;;4975057;28;20909;-60
2022/09/25 12:56:55;;;;;;;6.27;5.77;;;19.90;99.90;;;;;;4974206;28;20435;-59
2022/09/25 12:59:29;;;;;;;6.03;5.63;;;20.10;99.90;;;;;;4973976;28;20442;-60
2022/09/25 13:02:02;;;;;;;5.10;4.80;;;20.10;99.90;;;;;;4973936;28;20522;-59
2022/09/25 13:04:57;;;;;;;6.40;5.90;;;20.10;99.90;;;;;;4974271;28;20918;-59
2022/09/25 13:07:31;;;;;;;6.07;5.57;;;19.90;99.90;;;;;;4974659;28;20863;-59
2022/09/25 13:09:59;;;;;;;6.40;6.00;;;19.80;99.90;;;;;;4974627;28;20439;-60
2022/09/25 13:12:33;;;;;;;6.77;6.27;;;19.80;99.90;;;;;;4977701;28;20506;-60
2022/09/25 13:15:07;;;;;;;7.50;6.90;;;19.90;99.90;;;;;;4977823;28;20450;-59
2022/09/25 13:17:35;;;;;;;12.53;7.80;;;20.00;99.90;;;;;;4977692;28;20442;-60
2022/09/25 13:20:41;;;;;;;8.13;7.40;;;20.10;99.90;;;;;;4977688;28;20454;-59
2022/09/25 13:23:12;;;;;;;8.47;7.87;;;20.40;99.90;;;;;;4977769;28;20818;-59
2022/09/25 13:25:42;;;;;;;8.20;7.67;;;20.40;99.90;;;;;;4977251;28;20969;-59
2022/09/25 13:28:18;;;;;;;9.37;8.57;;;20.30;99.90;;;;;;4977740;28;20481;-59
2022/09/25 13:31:01;;;;;;;8.27;7.67;;;20.00;99.90;;;;;;4977428;28;20556;-59
2022/09/25 13:33:28;;;;;;;7.83;7.13;;;19.80;99.90;;;;;;4977370;28;20443;-59
2022/09/25 13:36:22;;;;;;;8.47;7.87;;;19.70;99.90;;;;;;4977324;28;20455;-60
2022/09/25 13:41:49;;;;;;;8.90;8.20;;;19.50;99.90;;;;;;4977191;28;21004;-60
2022/09/25 13:44:39;;;;;;;9.67;8.87;;;19.60;99.90;;;;;;4976979;28;20637;-60
2022/09/25 13:47:43;;;;;;;8.93;8.23;;;19.80;99.90;;;;;;4977112;28;20493;-59
2022/09/25 13:50:28;;;;;;;7.10;6.60;;;20.10;99.90;;;;;;4977075;28;20509;-59
2022/09/25 13:53:24;;;;;;;7.47;6.77;;;20.30;99.90;;;;;;4977045;28;20447;-59
2022/09/25 13:56:30;;;;;;;7.50;6.93;;;20.40;99.90;;;;;;4977064;28;20494;-59
2022/09/25 13:59:26;;;;;;;6.63;6.13;;;20.40;99.90;;;;;;4976989;28;20494;-59
2022/09/25 14:01:59;;;;;;;7.20;6.60;;;20.40;99.90;;;;;;4976385;28;20489;-59
2022/09/25 14:04:34;;;;;;;6.33;5.63;;;20.30;99.90;;;;;;4976995;28;20530;-59
2022/09/25 14:07:11;;;;;;;6.13;5.73;;;20.30;99.90;;;;;;4976786;28;20981;-59
2022/09/25 14:09:43;;;;;;;7.30;6.60;;;20.30;99.90;;;;;;4976798;28;20438;-60
2022/09/25 14:12:18;;;;;;;6.37;5.87;;;20.10;99.90;;;;;;4976729;28;20478;-60
2022/09/25 14:14:51;;;;;;;6.90;6.40;;;19.90;99.90;;;;;;4976618;28;20477;-59
2022/09/25 14:17:20;;;;;;;6.37;5.87;;;19.80;99.90;;;;;;4976733;28;20801;-60
2022/09/25 14:19:52;;;;;;;6.87;6.27;;;19.70;99.90;;;;;;4976564;28;20447;-60
2022/09/25 14:22:25;;;;;;;6.53;6.03;;;19.40;99.90;;;;;;4977305;28;20816;-61
2022/09/25 14:24:52;;;;;;;5.00;4.70;;;19.30;99.90;;;;;;4977073;28;20451;-60
2022/09/25 14:27:24;;;;;;;8.60;4.50;;;19.20;99.90;;;;;;4976380;28;20486;-61
2022/09/25 14:29:51;;;;;;;5.13;4.70;;;18.90;99.90;;;;;;4976091;28;20949;-60
2022/09/25 14:32:34;;;;;;;4.13;3.90;;;18.90;99.90;;;;;;4976315;28;20479;-60
2022/09/25 14:35:20;;;;;;;4.43;4.23;;;18.90;99.90;;;;;;4976469;28;20493;-61
2022/09/25 14:38:06;;;;;;;3.53;3.10;;;18.80;99.90;;;;;;4976533;28;20439;-60
2022/09/25 14:40:36;;;;;;;3.87;3.67;;;18.80;99.90;;;;;;4976535;28;20450;-60
2022/09/25 14:43:23;;;;;;;3.80;3.60;;;18.90;99.90;;;;;;4976321;28;20443;-60
2022/09/25 14:46:00;;;;;;;5.20;4.90;;;19.00;99.90;;;;;;4976314;28;20447;-60
2022/09/25 14:48:31;;;;;;;4.73;4.30;;;18.90;99.90;;;;;;4976555;28;20439;-60
2022/09/25 14:51:03;;;;;;;4.60;4.30;;;18.80;99.90;;;;;;4976067;28;20479;-61
2022/09/25 14:53:38;;;;;;;5.17;4.87;;;18.90;99.90;;;;;;4976050;28;20447;-61
2022/09/25 14:56:10;;;;;;;5.00;4.70;;;18.90;99.90;;;;;;4976141;28;20442;-60
2022/09/25 14:58:40;;;;;;;4.50;4.20;;;18.90;99.90;;;;;;4976327;28;20537;-61
2022/09/25 15:01:16;;;;;;;4.77;4.47;;;18.70;99.90;;;;;;4975782;28;20509;-61
2022/09/25 15:03:48;;;;;;;3.77;3.47;;;18.50;99.90;;;;;;4975910;28;20482;-60
2022/09/25 15:06:25;;;;;;;4.53;4.27;;;18.50;99.90;;;;;;4975938;28;20466;-61
2022/09/25 15:08:52;;;;;;;4.60;4.30;;;18.50;99.90;;;;;;4975461;28;20957;-60
2022/09/25 15:11:20;;;;;;;3.80;3.60;;;18.50;99.90;;;;;;4975545;28;20478;-60
2022/09/25 15:13:47;;;;;;;4.60;4.20;;;18.60;99.90;;;;;;4975847;28;20461;-61
2022/09/25 15:19:19;;;;;;;4.50;4.10;;;18.80;99.90;;;;;;4916075;29;20532;-61
2022/09/25 15:21:50;;;;;;;3.80;3.60;;;19.00;99.90;;;;;;4915951;29;20472;-61
2022/09/25 15:24:20;;;;;;;4.30;3.90;;;19.10;99.90;;;;;;4944151;28;20459;-61
2022/09/25 15:26:50;;;;;;;4.10;3.80;;;19.10;99.90;;;;;;4975595;28;20478;-60
2022/09/25 15:29:20;;;;;;;3.97;3.70;;;19.00;99.90;;;;;;4975346;28;20450;-60
2022/09/25 15:31:50;;;;;;;3.40;3.30;;;18.90;99.90;;;;;;4975650;28;20483;-60
2022/09/25 15:34:22;;;;;;;3.80;3.60;;;18.80;99.90;;;;;;4975009;28;20459;-60
2022/09/25 15:36:51;;;;;;;3.03;2.83;;;18.80;99.90;;;;;;4975120;28;20981;-60
2022/09/25 15:39:22;;;;;;;3.80;3.60;;;18.70;99.90;;;;;;4975320;28;20513;-60
2022/09/25 15:41:49;;;;;;;4.03;3.83;;;18.50;99.90;;;;;;4975158;28;20497;-60
2022/09/25 15:44:21;;;;;;;4.20;3.90;;;18.30;99.90;;;;;;4975339;28;20466;-60
2022/09/25 15:46:51;;;;;;;3.80;3.50;;;18.20;99.90;;;;;;4975210;28;20522;-60
2022/09/25 15:49:20;;;;;;;3.80;3.60;;;18.20;99.90;;;;;;4975246;28;20581;-60
2022/09/25 15:51:54;;;;;;;4.73;4.43;;;18.20;99.90;;;;;;4974781;28;20481;-60
2022/09/25 15:54:33;;;;;;;4.30;4.00;;;18.10;99.90;;;;;;4975337;28;20442;-60
2022/09/25 15:57:02;;;;;;;4.50;4.10;;;17.90;99.90;;;;;;4975169;28;20435;-60
2022/09/25 15:59:32;;;;;;;4.37;3.97;;;17.80;99.90;;;;;;4975231;28;20529;-60
2022/09/25 16:04:51;;;;;;;4.00;3.77;;;17.70;99.90;;;;;;4975283;28;20434;-60
2022/09/25 16:07:29;;;;;;;4.00;3.80;;;17.60;99.90;;;;;;4974880;28;20487;-60
2022/09/25 16:09:57;;;;;;;3.40;3.20;;;17.50;99.90;;;;;;4975001;28;20445;-60
2022/09/25 16:12:30;;;;;;;2.90;2.80;;;17.30;99.90;;;;;;4975180;28;20470;-60
2022/09/25 16:14:58;;;;;;;2.50;2.40;;;17.20;99.90;;;;;;4975320;28;20470;-60
2022/09/25 16:17:31;;;;;;;3.50;3.30;;;17.00;99.90;;;;;;4975088;28;20821;-60
2022/09/25 16:20:05;;;;;;;4.20;3.90;;;16.80;99.90;;;;;;4974982;28;20443;-60
2022/09/25 16:22:40;;;;;;;4.63;4.33;;;16.60;99.90;;;;;;4974604;28;20476;-60
2022/09/25 16:25:19;;;;;;;4.03;3.83;;;16.50;99.90;;;;;;4975249;28;20875;-60
2022/09/25 16:27:46;;;;;;;4.17;3.97;;;16.40;99.90;;;;;;4975234;28;20474;-60
2022/09/25 16:30:17;;;;;;;5.00;4.70;;;16.30;99.90;;;;;;4974970;28;20483;-60
2022/09/25 16:32:46;;;;;;;4.30;4.10;;;16.10;99.90;;;;;;4974489;28;20438;-60
2022/09/25 16:35:23;;;;;;;4.70;4.43;;;16.00;99.90;;;;;;4974657;28;20513;-60
2022/09/25 16:37:53;;;;;;;4.70;4.40;;;15.90;99.90;;;;;;4974777;28;20435;-60
2022/09/25 16:40:24;;;;;;;4.90;4.70;;;15.90;99.90;;;;;;4974496;28;20545;-60
2022/09/25 16:42:52;;;;;;;5.57;5.27;;;15.80;99.90;;;;;;4974705;28;20474;-60
2022/09/25 16:45:22;;;;;;;5.90;5.47;;;15.80;99.90;;;;;;4975506;28;20458;-60
2022/09/25 16:47:49;;;;;;;5.20;4.83;;;15.80;99.90;;;;;;4979165;28;20478;-60
2022/09/25 16:50:17;;;;;;;5.17;4.77;;;15.80;99.90;;;;;;4978332;28;20446;-60
2022/09/25 16:52:44;;;;;;;4.33;4.13;;;15.80;99.90;;;;;;4978336;28;20454;-60
2022/09/25 16:55:23;;;;;;;3.47;3.27;;;15.80;99.90;;;;;;4978256;28;20533;-61
2022/09/25 16:57:50;;;;;;;2.60;2.40;;;15.70;99.90;;;;;;4978262;28;20438;-60
2022/09/25 17:00:19;;;;;;;3.60;3.30;;;15.60;99.90;;;;;;4977890;28;20454;-60
2022/09/25 17:02:47;;;;;;;4.70;4.40;;;15.60;99.90;;;;;;4978105;28;20443;-60
2022/09/25 17:05:17;;;;;;;5.47;4.97;;;15.50;99.90;;;;;;4978115;28;20505;-60
2022/09/25 17:07:46;;;;;;;6.13;5.63;;;15.40;99.90;;;;;;4977968;28;20466;-60
2022/09/25 17:10:14;;;;;;;5.77;5.37;;;15.30;99.90;;;;;;4977939;28;20454;-60
2022/09/25 17:12:45;;;;;;;6.20;5.80;;;15.30;99.90;;;;;;4977822;28;20570;-60
2022/09/25 17:15:22;;;;;;;6.20;5.70;;;15.20;99.90;;;;;;4977548;28;20918;-60
2022/09/25 17:17:52;;;;;;;5.27;4.97;;;15.20;99.90;;;;;;4977937;28;20439;-60
2022/09/25 17:20:19;;;;;;;5.53;5.13;;;15.20;99.90;;;;;;4977647;28;20462;-60
2022/09/25 17:22:45;;;;;;;5.33;5.03;;;15.10;99.90;;;;;;4977279;28;20960;-60